Brian Head, Utah
Current Conditions -  °F | °C
As of 6:53 AM on Thursday 29 Jan 2015 (Local Time) from KCDC Reporting Station
Overcast Overcast  
Wind Chill: 29°   Ceiling: 11000
Heat Index: 33°   Visibility: 10mi
Dew Point: 30°   Wind: 5mph
Humidity: 89%   Direction: 180°S
Pressure: 30.29"   Gusts: NA
Location:  37.69°N, 112.85°W
Report Text: KCDC 291353Z AUTO 18004KT 10SM OVC110 01/M01 A3029 RMK AO2 SLP253 T00061011
Loading
Personal Weather Stations






























Interactive Weather Map New forecast layout! Learn more

10-Day Weather Forecast

Advertisements
Track Severe Weather on mobile